createdAt,value
2023-01-11T00:01:22.208Z,4.63
2023-01-11T00:03:50.812Z,9.47
2023-01-11T00:06:19.544Z,2.57
2023-01-11T00:08:48.134Z,4.53
2023-01-11T00:11:17.579Z,3.80
2023-01-11T00:13:46.502Z,7.07
2023-01-11T00:16:15.497Z,5.53
2023-01-11T00:18:45.489Z,5.03
2023-01-11T00:21:14.855Z,5.20
2023-01-11T00:23:43.524Z,3.10
2023-01-11T00:26:13.715Z,2.27
2023-01-11T00:28:42.554Z,4.00
2023-01-11T00:31:11.305Z,2.10
2023-01-11T00:33:39.989Z,13.10
2023-01-11T00:36:10.530Z,4.80
2023-01-11T00:38:46.854Z,4.83
2023-01-11T00:41:34.478Z,4.37
2023-01-11T00:44:23.353Z,6.37
2023-01-11T00:47:09.287Z,5.10
2023-01-11T00:49:37.955Z,4.53
2023-01-11T00:52:09.263Z,3.10
2023-01-11T00:54:38.215Z,5.30
2023-01-11T00:57:07.541Z,3.43
2023-01-11T00:59:36.525Z,4.03
2023-01-11T01:02:05.349Z,3.00
2023-01-11T01:04:34.156Z,2.00
2023-01-11T01:07:02.731Z,2.87
2023-01-11T01:09:33.064Z,4.80
2023-01-11T01:12:02.886Z,6.90
2023-01-11T01:14:31.359Z,3.33
2023-01-11T01:17:01.583Z,2.60
2023-01-11T01:19:31.390Z,3.43
2023-01-11T01:22:00.983Z,6.50
2023-01-11T01:24:30.767Z,3.43
2023-01-11T01:27:00.905Z,3.80
2023-01-11T01:29:29.780Z,2.10
2023-01-11T01:31:58.413Z,4.23
2023-01-11T01:34:27.305Z,1.90
2023-01-11T01:36:55.876Z,1.60
2023-01-11T01:39:24.437Z,4.33
2023-01-11T01:41:53.077Z,2.07
2023-01-11T01:44:57.989Z,2.23
2023-01-11T01:47:32.274Z,3.13
2023-01-11T01:50:03.432Z,5.00
2023-01-11T01:52:33.255Z,1.73
2023-01-11T01:55:07.285Z,6.73
2023-01-11T01:57:38.709Z,3.33
2023-01-11T02:00:11.519Z,2.47
2023-01-11T02:02:41.281Z,2.90
2023-01-11T02:05:11.273Z,1.53
2023-01-11T02:07:41.656Z,2.47
2023-01-11T02:10:12.759Z,1.13
2023-01-11T02:12:44.288Z,1.50
2023-01-11T02:15:14.547Z,2.30
2023-01-11T02:17:43.149Z,2.87
2023-01-11T02:20:34.640Z,1.63
2023-01-11T02:23:16.073Z,2.17
2023-01-11T02:26:18.030Z,1.10
2023-01-11T02:28:52.961Z,2.40
2023-01-11T02:31:30.211Z,1.30
2023-01-11T02:34:11.423Z,1.03
2023-01-11T02:36:48.715Z,1.67
2023-01-11T02:39:22.429Z,7.57
2023-01-11T02:42:14.377Z,2.60
2023-01-11T02:45:03.161Z,2.33
2023-01-11T02:47:38.427Z,2.30
2023-01-11T02:50:14.693Z,4.30
2023-01-11T02:52:50.509Z,1.97
2023-01-11T02:55:22.326Z,2.07
2023-01-11T02:57:52.535Z,4.23
2023-01-11T03:00:23.232Z,1.80
2023-01-11T03:03:07.300Z,2.13
2023-01-11T03:05:39.239Z,1.07
2023-01-11T03:08:26.595Z,1.83
2023-01-11T03:11:02.554Z,4.30
2023-01-11T03:13:41.306Z,3.50
2023-01-11T03:16:22.263Z,3.10
2023-01-11T03:18:54.353Z,4.93
2023-01-11T03:21:32.859Z,2.10
2023-01-11T03:24:08.415Z,4.20
2023-01-11T03:26:45.682Z,2.50
2023-01-11T03:29:19.203Z,2.70
2023-01-11T03:31:52.446Z,2.87
2023-01-11T03:34:26.278Z,1.67
2023-01-11T03:36:58.713Z,1.33
2023-01-11T03:39:30.679Z,2.60
2023-01-11T03:42:01.489Z,2.10
2023-01-11T03:44:34.203Z,2.57
2023-01-11T03:47:06.771Z,4.33
2023-01-11T03:49:38.163Z,1.57
2023-01-11T03:52:09.741Z,1.47
2023-01-11T03:54:38.628Z,2.23
2023-01-11T03:57:11.529Z,1.40
2023-01-11T03:59:41.139Z,3.40
2023-01-11T04:02:17.277Z,4.90
2023-01-11T04:04:46.046Z,2.10
2023-01-11T04:07:15.507Z,1.47
2023-01-11T04:09:44.088Z,1.73
2023-01-11T04:12:12.853Z,1.50
2023-01-11T04:14:41.463Z,1.37
2023-01-11T04:17:10.059Z,1.70
2023-01-11T04:19:39.981Z,2.07
2023-01-11T04:22:08.596Z,1.10
2023-01-11T04:24:37.167Z,1.27
2023-01-11T04:27:05.728Z,2.03
2023-01-11T04:29:34.414Z,3.50
2023-01-11T04:32:03.617Z,2.87
2023-01-11T04:34:32.224Z,1.53
2023-01-11T04:37:02.216Z,1.47
2023-01-11T04:39:30.833Z,4.73
2023-01-11T04:42:16.753Z,2.20
2023-01-11T04:44:45.555Z,1.33
2023-01-11T04:47:14.212Z,6.43
2023-01-11T04:49:43.039Z,1.73
2023-01-11T04:52:14.274Z,2.13
2023-01-11T04:54:43.155Z,3.60
2023-01-11T04:57:13.624Z,4.03
2023-01-11T04:59:42.753Z,1.30
2023-01-11T05:02:11.366Z,3.97
2023-01-11T05:04:39.933Z,7.90
2023-01-11T05:07:08.940Z,2.37
2023-01-11T05:09:40.814Z,2.17
2023-01-11T05:12:09.453Z,4.03
2023-01-11T05:14:38.103Z,2.33
2023-01-11T05:17:06.667Z,3.63
2023-01-11T05:19:35.253Z,3.70
2023-01-11T05:22:03.922Z,5.00
2023-01-11T05:24:32.497Z,2.20
2023-01-11T05:27:03.547Z,2.23
2023-01-11T05:29:32.136Z,2.40
2023-01-11T05:32:00.786Z,1.97
2023-01-11T05:34:29.469Z,4.77
2023-01-11T05:36:58.097Z,3.60
2023-01-11T05:39:26.930Z,2.30
2023-01-11T05:41:55.520Z,1.90
2023-01-11T05:44:43.087Z,1.60
2023-01-11T05:47:11.687Z,1.70
2023-01-11T05:49:40.827Z,3.23
2023-01-11T05:52:09.389Z,1.20
2023-01-11T05:54:38.220Z,1.53
2023-01-11T05:57:10.486Z,1.93
2023-01-11T05:59:40.428Z,2.07
2023-01-11T06:02:09.089Z,2.93
2023-01-11T06:04:37.745Z,5.40
2023-01-11T06:07:06.842Z,2.30
2023-01-11T06:09:35.508Z,2.10
2023-01-11T06:12:04.327Z,3.23
2023-01-11T06:14:32.967Z,2.57
2023-01-11T06:17:03.831Z,2.50
2023-01-11T06:19:32.439Z,4.03
2023-01-11T06:22:01.043Z,5.13
2023-01-11T06:24:29.679Z,5.10
2023-01-11T06:26:58.366Z,2.60
2023-01-11T06:29:26.934Z,8.43
2023-01-11T06:31:55.567Z,3.47
2023-01-11T06:34:25.588Z,2.60
2023-01-11T06:36:54.189Z,3.60
2023-01-11T06:39:22.841Z,3.63
2023-01-11T06:41:51.564Z,3.60
2023-01-11T06:44:20.507Z,3.00
2023-01-11T06:46:49.168Z,3.57
2023-01-11T06:49:17.788Z,4.90
2023-01-11T06:51:47.768Z,4.90
2023-01-11T06:54:21.827Z,3.00
2023-01-11T06:56:50.385Z,9.30
2023-01-11T06:59:19.013Z,5.03
2023-01-11T07:01:48.034Z,5.50
2023-01-11T07:04:18.606Z,6.07
2023-01-11T07:06:48.596Z,14.87
2023-01-11T07:09:17.216Z,11.03
2023-01-11T07:11:45.818Z,18.07
2023-01-11T07:14:19.804Z,13.70
2023-01-11T07:16:48.415Z,10.80
2023-01-11T07:19:18.096Z,11.57
2023-01-11T07:21:48.173Z,7.00
2023-01-11T07:24:16.796Z,4.60
2023-01-11T07:26:45.459Z,3.73
2023-01-11T07:29:14.106Z,8.73
2023-01-11T07:31:42.786Z,4.53
2023-01-11T07:34:11.421Z,6.37
2023-01-11T07:36:40.869Z,8.20
2023-01-11T07:39:10.836Z,10.77
2023-01-11T07:41:56.915Z,9.53
2023-01-11T07:44:25.539Z,7.50
2023-01-11T07:46:54.441Z,6.50
2023-01-11T07:49:23.128Z,8.60
2023-01-11T07:51:52.766Z,12.10
2023-01-11T07:54:22.834Z,7.37
2023-01-11T07:56:51.478Z,11.20
2023-01-11T07:59:20.138Z,10.67
2023-01-11T08:01:48.810Z,7.40
2023-01-11T08:04:17.494Z,3.93
2023-01-11T08:06:46.116Z,5.33
2023-01-11T08:09:14.800Z,5.43
2023-01-11T08:12:02.177Z,24.13
2023-01-11T08:14:43.057Z,4.33
2023-01-11T08:17:13.824Z,7.67
2023-01-11T08:19:42.917Z,9.30
2023-01-11T08:22:12.188Z,8.60
2023-01-11T08:24:40.843Z,7.70
2023-01-11T08:27:11.003Z,8.87
2023-01-11T08:29:43.888Z,11.43
2023-01-11T08:32:12.709Z,10.20
2023-01-11T08:34:41.594Z,7.13
2023-01-11T08:37:10.266Z,7.73
2023-01-11T08:39:40.330Z,8.63
2023-01-11T08:42:10.294Z,7.20
2023-01-11T08:44:39.019Z,6.43
2023-01-11T08:47:07.844Z,7.50
2023-01-11T08:49:36.430Z,4.47
2023-01-11T08:52:05.459Z,8.40
2023-01-11T08:54:34.077Z,7.23
2023-01-11T08:57:02.718Z,5.07
2023-01-11T08:59:32.777Z,4.47
2023-01-11T09:02:02.487Z,7.03
2023-01-11T09:04:31.248Z,3.87
2023-01-11T09:06:59.927Z,10.60
2023-01-11T09:09:28.539Z,3.60
2023-01-11T09:12:00.311Z,7.10
2023-01-11T09:14:29.877Z,6.50
2023-01-11T09:17:00.159Z,11.03
2023-01-11T09:19:28.792Z,7.50
2023-01-11T09:22:00.357Z,4.93
2023-01-11T09:24:29.173Z,8.43
2023-01-11T09:26:59.239Z,4.30
2023-01-11T09:29:28.015Z,6.50
2023-01-11T09:31:56.761Z,6.00
2023-01-11T09:34:27.455Z,7.90
2023-01-11T09:36:59.347Z,5.33
2023-01-11T09:39:28.899Z,7.60
2023-01-11T09:42:12.739Z,9.00
2023-01-11T09:44:49.705Z,5.20
2023-01-11T09:47:23.398Z,14.43
2023-01-11T09:49:57.265Z,6.97
2023-01-11T09:52:29.909Z,5.80
2023-01-11T09:54:59.833Z,5.10
2023-01-11T09:57:38.954Z,5.33
2023-01-11T10:00:16.374Z,6.20
2023-01-11T10:02:56.876Z,7.00
2023-01-11T10:05:37.492Z,5.23
2023-01-11T10:18:34.073Z,8.67
2023-01-11T10:18:41.719Z,8.70
2023-01-11T10:20:04.948Z,10.37
2023-01-11T10:22:40.950Z,10.47
2023-01-11T10:25:18.690Z,5.87
2023-01-11T10:27:54.309Z,7.73
2023-01-11T10:30:41.959Z,14.97
2023-01-11T10:33:29.864Z,5.37
2023-01-11T10:36:14.680Z,8.67
2023-01-11T10:39:07.932Z,7.33
2023-01-11T10:41:46.650Z,10.87
2023-01-11T10:44:19.349Z,9.43
2023-01-11T10:46:50.984Z,9.07
2023-01-11T10:49:32.206Z,11.83
2023-01-11T10:52:07.625Z,12.83
2023-01-11T10:54:39.044Z,10.47
2023-01-11T10:57:18.112Z,11.17
2023-01-11T10:59:59.792Z,8.03
2023-01-11T11:02:41.236Z,9.03
2023-01-11T11:05:20.556Z,7.37
2023-01-11T11:07:55.499Z,11.73
2023-01-11T11:10:32.877Z,8.33
2023-01-11T11:13:10.311Z,11.73
2023-01-11T11:15:42.361Z,6.60
2023-01-11T11:18:11.189Z,6.47
2023-01-11T11:20:40.696Z,6.03
2023-01-11T11:23:12.114Z,9.23
2023-01-11T11:25:43.517Z,15.50
2023-01-11T11:28:27.337Z,13.37
2023-01-11T11:30:57.668Z,10.47
2023-01-11T11:33:29.639Z,5.40
2023-01-11T11:35:59.784Z,6.53
2023-01-11T11:38:30.178Z,3.63
2023-01-11T11:41:06.599Z,6.87
2023-01-11T11:43:36.402Z,2.90
2023-01-11T11:46:06.239Z,1.43
2023-01-11T11:48:35.795Z,1.63
2023-01-11T11:51:06.597Z,4.87
2023-01-11T11:53:38.403Z,4.83
2023-01-11T11:56:18.659Z,1.90
2023-01-11T11:58:47.765Z,1.93
2023-01-11T12:01:28.960Z,0.80
2023-01-11T12:04:00.538Z,0.60
2023-01-11T12:06:30.187Z,1.07
2023-01-11T12:09:01.512Z,0.70
2023-01-11T12:11:34.897Z,0.60
2023-01-11T12:14:07.609Z,2.17
2023-01-11T12:16:39.442Z,1.23
2023-01-11T12:19:26.155Z,0.70
2023-01-11T12:21:54.851Z,1.10
2023-01-11T12:24:27.150Z,2.53
2023-01-11T12:27:06.443Z,2.17
2023-01-11T12:29:50.989Z,1.37
2023-01-11T12:32:31.689Z,1.67
2023-01-11T12:35:10.010Z,2.33
2023-01-11T12:37:52.056Z,1.23
2023-01-11T12:40:26.583Z,1.00
2023-01-11T12:43:10.206Z,0.80
2023-01-11T12:45:43.939Z,3.60
2023-01-11T12:48:31.156Z,3.00
2023-01-11T12:51:09.550Z,0.90
2023-01-11T12:53:53.851Z,0.80
2023-01-11T12:56:50.032Z,1.13
2023-01-11T12:59:30.476Z,0.80
2023-01-11T13:02:06.904Z,0.90
2023-01-11T13:04:50.516Z,1.90
2023-01-11T13:07:36.977Z,2.60
2023-01-11T13:10:25.402Z,1.23
2023-01-11T13:12:58.425Z,1.07
2023-01-11T13:15:34.809Z,1.23
2023-01-11T13:18:13.086Z,1.10
2023-01-11T13:21:00.141Z,0.70
2023-01-11T13:23:34.400Z,1.00
2023-01-11T13:26:13.103Z,3.27
2023-01-11T13:28:44.454Z,1.00
2023-01-11T13:31:16.079Z,0.70
2023-01-11T13:33:48.072Z,7.50
2023-01-11T13:36:23.624Z,2.30
2023-01-11T13:38:58.302Z,1.17
2023-01-11T13:41:31.245Z,1.83
2023-01-11T13:44:03.347Z,1.10
2023-01-11T13:46:43.420Z,1.50
2023-01-11T13:49:19.290Z,0.70
2023-01-11T13:51:53.081Z,2.17
2023-01-11T13:54:26.715Z,1.20
2023-01-11T13:56:59.714Z,0.93
2023-01-11T13:59:31.666Z,0.73
2023-01-11T14:02:04.344Z,1.43
2023-01-11T14:04:39.835Z,1.37
2023-01-11T14:07:15.212Z,1.33
2023-01-11T14:10:04.732Z,2.13
2023-01-11T14:12:48.311Z,1.00
2023-01-11T14:15:24.005Z,1.40
2023-01-11T14:18:13.142Z,1.57
2023-01-11T14:20:47.079Z,4.20
2023-01-11T14:23:19.008Z,1.10
2023-01-11T14:26:11.484Z,3.10
2023-01-11T14:28:59.228Z,1.10
2023-01-11T14:31:45.056Z,1.30
2023-01-11T14:34:53.408Z,4.23
2023-01-11T14:37:43.793Z,1.20
2023-01-11T14:40:27.857Z,1.30
2023-01-11T14:43:50.076Z,1.20
2023-01-11T14:46:52.284Z,1.03
2023-01-11T14:49:34.397Z,0.90
2023-01-11T14:52:05.477Z,1.10
2023-01-11T14:54:35.531Z,0.87
2023-01-11T14:57:04.397Z,1.53
2023-01-11T14:59:35.801Z,2.10
2023-01-11T15:02:29.162Z,1.73
2023-01-11T15:05:13.434Z,1.20
2023-01-11T15:07:43.178Z,3.73
2023-01-11T15:10:41.847Z,2.80
2023-01-11T15:13:14.656Z,1.00
2023-01-11T15:16:01.144Z,0.90
2023-01-11T15:18:30.490Z,0.70
2023-01-11T15:21:04.655Z,2.20
2023-01-11T15:23:36.526Z,0.93
2023-01-11T15:26:07.875Z,1.20
2023-01-11T15:28:45.053Z,1.30
2023-01-11T15:31:33.914Z,1.30
2023-01-11T15:34:06.479Z,1.23
2023-01-11T15:37:17.685Z,1.70
2023-01-11T15:39:49.447Z,3.60
2023-01-11T15:42:38.606Z,1.40
2023-01-11T15:45:30.565Z,1.33
2023-01-11T15:48:17.658Z,1.87
2023-01-11T15:51:07.561Z,2.93
2023-01-11T15:53:57.020Z,1.93
2023-01-11T15:56:55.320Z,1.73
2023-01-11T16:00:03.549Z,2.50
2023-01-11T16:02:56.536Z,3.90
2023-01-11T16:05:28.101Z,1.50
2023-01-11T16:08:03.106Z,2.00
2023-01-11T16:10:52.458Z,0.90
2023-01-11T16:13:31.464Z,2.97
2023-01-11T16:16:07.891Z,2.83
2023-01-11T16:18:39.984Z,1.80
2023-01-11T16:21:13.270Z,7.33
2023-01-11T16:23:42.276Z,3.37
2023-01-11T16:26:16.636Z,1.43
2023-01-11T16:28:50.103Z,5.83
2023-01-11T16:31:18.833Z,3.83
2023-01-11T16:33:49.701Z,3.80
2023-01-11T16:36:21.894Z,2.50
2023-01-11T16:39:02.462Z,2.00
2023-01-11T16:41:38.042Z,3.50
2023-01-11T16:44:08.949Z,3.83
2023-01-11T16:47:15.825Z,6.90
2023-01-11T16:49:48.830Z,11.60
2023-01-11T16:52:39.280Z,7.20
2023-01-11T16:55:32.445Z,6.30
2023-01-11T16:58:04.473Z,6.80
2023-01-11T17:00:37.976Z,4.97
2023-01-11T17:03:21.622Z,5.60
2023-01-11T17:06:14.603Z,5.90
2023-01-11T17:08:44.709Z,3.10
2023-01-11T17:11:25.375Z,3.40
2023-01-11T17:14:19.797Z,11.00
2023-01-11T17:16:50.305Z,9.00
2023-01-11T17:19:21.510Z,4.13
2023-01-11T17:21:52.033Z,4.20
2023-01-11T17:24:24.713Z,5.40
2023-01-11T17:26:56.483Z,3.30
2023-01-11T17:29:30.255Z,6.73
2023-01-11T17:32:00.314Z,4.18
2023-01-11T17:34:32.206Z,4.50
2023-01-11T17:37:01.783Z,2.93
2023-01-11T17:39:33.138Z,2.50
2023-01-11T17:42:20.482Z,4.43
2023-01-11T17:45:08.844Z,6.67
2023-01-11T17:47:39.503Z,2.50
2023-01-11T17:50:20.074Z,4.67
2023-01-11T17:52:54.890Z,9.50
2023-01-11T17:55:25.770Z,4.53
2023-01-11T17:58:14.514Z,4.20
2023-01-11T18:00:45.414Z,3.70
2023-01-11T18:03:15.833Z,3.53
2023-01-11T18:05:45.124Z,6.17
2023-01-11T18:08:20.233Z,7.03
2023-01-11T18:10:55.183Z,3.93
2023-01-11T18:13:27.381Z,2.07
2023-01-11T18:15:57.370Z,1.57
2023-01-11T18:18:43.541Z,5.33
2023-01-11T18:21:41.067Z,2.83
2023-01-11T18:24:43.044Z,2.97
2023-01-11T18:27:21.090Z,3.23
2023-01-11T18:29:51.055Z,2.97
2023-01-11T18:32:21.756Z,3.00
2023-01-11T18:34:53.827Z,2.90
2023-01-11T18:37:22.945Z,4.00
2023-01-11T18:39:52.854Z,5.37
2023-01-11T18:42:25.819Z,3.90
2023-01-11T18:44:54.500Z,6.17
2023-01-11T18:47:25.892Z,3.03
2023-01-11T18:49:54.920Z,2.97
2023-01-11T18:52:27.343Z,5.23
2023-01-11T18:54:56.696Z,4.40
2023-01-11T18:57:26.183Z,6.57
2023-01-11T18:59:55.473Z,6.67
2023-01-11T19:02:27.540Z,5.07
2023-01-11T19:04:57.364Z,9.37
2023-01-11T19:07:27.658Z,11.80
2023-01-11T19:09:56.466Z,9.70
2023-01-11T19:12:25.075Z,12.70
2023-01-11T19:14:53.747Z,19.90
2023-01-11T19:17:22.509Z,16.93
2023-01-11T19:19:52.476Z,21.37
2023-01-11T19:22:23.442Z,21.97
2023-01-11T19:24:55.152Z,25.60
2023-01-11T19:27:24.375Z,19.53
2023-01-11T19:29:53.953Z,18.20
2023-01-11T19:32:25.056Z,20.27
2023-01-11T19:34:57.933Z,13.93
2023-01-11T19:37:29.968Z,12.97
2023-01-11T19:39:58.585Z,13.10
2023-01-11T19:42:27.222Z,12.43
2023-01-11T19:44:55.907Z,10.77
2023-01-11T19:47:24.608Z,10.77
2023-01-11T19:49:56.279Z,11.17
2023-01-11T19:52:26.711Z,10.10
2023-01-11T19:54:56.732Z,10.80
2023-01-11T19:57:25.466Z,19.03
2023-01-11T19:59:54.126Z,7.20
2023-01-11T20:02:22.896Z,14.00
2023-01-11T20:04:51.602Z,8.37
2023-01-11T20:07:20.339Z,9.47
2023-01-11T20:09:50.361Z,10.77
2023-01-11T20:12:19.015Z,18.40
2023-01-11T20:14:47.669Z,13.13
2023-01-11T20:17:20.904Z,14.30
2023-01-11T20:19:54.369Z,12.63
2023-01-11T20:22:23.314Z,11.70
2023-01-11T20:24:53.348Z,15.20
2023-01-11T20:27:21.990Z,13.60
2023-01-11T20:29:50.705Z,11.10
2023-01-11T20:32:39.632Z,14.67
2023-01-11T20:35:09.450Z,13.60
2023-01-11T20:37:38.193Z,13.10
2023-01-11T20:40:11.805Z,16.10
2023-01-11T20:42:41.428Z,13.07
2023-01-11T20:45:11.122Z,11.10
2023-01-11T20:47:39.733Z,10.30
2023-01-11T20:50:09.618Z,13.90
2023-01-11T20:52:38.198Z,12.00
2023-01-11T20:55:09.321Z,13.83
2023-01-11T20:57:37.971Z,11.17
2023-01-11T21:02:38.453Z,14.80
2023-01-11T21:05:07.974Z,12.43
2023-01-11T21:07:36.600Z,9.90
2023-01-11T21:10:05.964Z,9.27
2023-01-11T21:12:35.990Z,11.80
2023-01-11T21:15:05.227Z,14.00
2023-01-11T21:17:33.987Z,16.17
2023-01-11T21:20:02.680Z,10.90
2023-01-11T21:22:31.392Z,10.27
2023-01-11T21:25:00.037Z,10.40
2023-01-11T21:27:28.685Z,11.43
2023-01-11T21:29:58.609Z,9.10
2023-01-11T21:32:27.280Z,11.40
2023-01-11T21:34:55.946Z,7.13
2023-01-11T21:37:24.682Z,7.07
2023-01-11T21:39:53.406Z,8.77
2023-01-11T21:42:22.078Z,7.33
2023-01-11T21:44:50.656Z,7.27
2023-01-11T21:47:22.209Z,10.50
2023-01-11T21:49:50.789Z,7.73
2023-01-11T21:52:19.454Z,6.47
2023-01-11T21:54:49.611Z,8.80
2023-01-11T21:57:18.226Z,10.17
2023-01-11T21:59:47.016Z,6.97
2023-01-11T22:02:15.715Z,10.17
2023-01-11T22:04:45.810Z,9.20
2023-01-11T22:07:14.418Z,8.57
2023-01-11T22:09:59.902Z,8.07
2023-01-11T22:12:32.091Z,10.27
2023-01-11T22:15:00.732Z,7.70
2023-01-11T22:17:29.355Z,8.93
2023-01-11T22:19:59.300Z,9.07
2023-01-11T22:22:28.186Z,8.17
2023-01-11T22:24:56.836Z,7.13
2023-01-11T22:27:25.474Z,8.00
2023-01-11T22:29:54.839Z,7.33
2023-01-11T22:32:23.513Z,13.83
2023-01-11T22:34:52.234Z,10.87
2023-01-11T22:37:22.333Z,6.93
2023-01-11T22:39:51.011Z,10.47
2023-01-11T22:42:19.657Z,9.90
2023-01-11T22:44:48.301Z,11.50
2023-01-11T22:47:16.920Z,8.27
2023-01-11T22:49:45.551Z,7.40
2023-01-11T22:52:14.130Z,4.10
2023-01-11T22:54:44.058Z,5.07
2023-01-11T22:57:12.646Z,6.10
2023-01-11T22:59:41.202Z,5.30
2023-01-11T23:02:10.015Z,5.00
2023-01-11T23:04:38.594Z,5.93
2023-01-11T23:07:07.245Z,6.13
2023-01-11T23:09:35.941Z,3.30
2023-01-11T23:12:24.594Z,5.43
2023-01-11T23:14:53.207Z,4.17
2023-01-11T23:17:21.849Z,9.17
2023-01-11T23:19:50.513Z,6.60
2023-01-11T23:22:19.145Z,3.80
2023-01-11T23:24:47.845Z,8.27
2023-01-11T23:27:17.926Z,6.00
2023-01-11T23:29:46.530Z,9.47
2023-01-11T23:32:15.162Z,10.13
2023-01-11T23:34:43.794Z,7.50
2023-01-11T23:37:12.373Z,5.10
2023-01-11T23:39:41.013Z,9.33
2023-01-11T23:42:27.850Z,16.10
2023-01-11T23:44:58.546Z,8.13
2023-01-11T23:47:29.463Z,3.67
2023-01-11T23:50:00.345Z,4.53
2023-01-11T23:52:31.374Z,4.77
2023-01-11T23:55:00.537Z,6.03
2023-01-11T23:57:29.218Z,5.53
2023-01-11T23:59:59.156Z,5.50
